sensor_id;sensor_type;location;lat;lon;timestamp;P1;durP1;ratioP1;P2;durP2;ratioP2
50880;SDS011;36858;47.832;-3.800;2022-12-18T00:01:12;19.37;;;11.73;;
50880;SDS011;36858;47.832;-3.800;2022-12-18T00:03:47;16.50;;;11.77;;
50880;SDS011;36858;47.832;-3.800;2022-12-18T00:06:18;16.87;;;11.63;;
50880;SDS011;36858;47.832;-3.800;2022-12-18T00:08:45;17.57;;;12.03;;
50880;SDS011;36858;47.832;-3.800;2022-12-18T00:11:17;19.47;;;12.23;;
50880;SDS011;36858;47.832;-3.800;2022-12-18T00:13:45;18.50;;;12.13;;
50880;SDS011;36858;47.832;-3.800;2022-12-18T00:16:14;19.73;;;12.90;;
50880;SDS011;36858;47.832;-3.800;2022-12-18T00:18:42;18.43;;;12.93;;
50880;SDS011;36858;47.832;-3.800;2022-12-18T00:21:10;17.00;;;11.80;;
50880;SDS011;36858;47.832;-3.800;2022-12-18T00:23:38;17.53;;;10.40;;
50880;SDS011;36858;47.832;-3.800;2022-12-18T00:26:10;17.00;;;11.40;;
50880;SDS011;36858;47.832;-3.800;2022-12-18T00:28:39;18.70;;;11.60;;
50880;SDS011;36858;47.832;-3.800;2022-12-18T00:31:10;17.73;;;11.50;;
50880;SDS011;36858;47.832;-3.800;2022-12-18T00:33:39;18.93;;;12.13;;
50880;SDS011;36858;47.832;-3.800;2022-12-18T00:36:08;17.23;;;11.97;;
50880;SDS011;36858;47.832;-3.800;2022-12-18T00:38:37;17.53;;;11.93;;
50880;SDS011;36858;47.832;-3.800;2022-12-18T00:41:05;18.90;;;11.30;;
50880;SDS011;36858;47.832;-3.800;2022-12-18T00:43:33;17.37;;;11.30;;
50880;SDS011;36858;47.832;-3.800;2022-12-18T00:46:01;15.77;;;11.23;;
50880;SDS011;36858;47.832;-3.800;2022-12-18T00:48:28;21.00;;;13.13;;
50880;SDS011;36858;47.832;-3.800;2022-12-18T00:50:55;15.87;;;11.00;;
50880;SDS011;36858;47.832;-3.800;2022-12-18T00:53:22;18.63;;;12.17;;
50880;SDS011;36858;47.832;-3.800;2022-12-18T00:55:49;18.23;;;11.40;;
50880;SDS011;36858;47.832;-3.800;2022-12-18T00:58:16;19.17;;;12.07;;
50880;SDS011;36858;47.832;-3.800;2022-12-18T01:00:43;17.27;;;11.07;;
50880;SDS011;36858;47.832;-3.800;2022-12-18T01:03:12;20.70;;;12.17;;
50880;SDS011;36858;47.832;-3.800;2022-12-18T01:05:41;16.23;;;11.27;;
50880;SDS011;36858;47.832;-3.800;2022-12-18T01:08:08;19.27;;;11.63;;
50880;SDS011;36858;47.832;-3.800;2022-12-18T01:10:35;16.17;;;11.87;;
50880;SDS011;36858;47.832;-3.800;2022-12-18T01:13:02;14.63;;;10.57;;
50880;SDS011;36858;47.832;-3.800;2022-12-18T01:15:29;19.47;;;12.10;;
50880;SDS011;36858;47.832;-3.800;2022-12-18T01:17:56;19.13;;;11.70;;
50880;SDS011;36858;47.832;-3.800;2022-12-18T01:20:23;18.20;;;12.07;;
50880;SDS011;36858;47.832;-3.800;2022-12-18T01:22:50;17.70;;;12.07;;
50880;SDS011;36858;47.832;-3.800;2022-12-18T01:25:17;17.00;;;11.43;;
50880;SDS011;36858;47.832;-3.800;2022-12-18T01:27:44;18.23;;;11.47;;
50880;SDS011;36858;47.832;-3.800;2022-12-18T01:30:11;18.13;;;12.17;;
50880;SDS011;36858;47.832;-3.800;2022-12-18T01:32:38;17.57;;;11.07;;
50880;SDS011;36858;47.832;-3.800;2022-12-18T01:35:05;23.07;;;11.77;;
50880;SDS011;36858;47.832;-3.800;2022-12-18T01:37:32;18.70;;;12.07;;
50880;SDS011;36858;47.832;-3.800;2022-12-18T01:39:59;16.10;;;11.27;;
50880;SDS011;36858;47.832;-3.800;2022-12-18T01:42:26;17.97;;;11.97;;
50880;SDS011;36858;47.832;-3.800;2022-12-18T01:48:07;17.97;;;11.97;;
50880;SDS011;36858;47.832;-3.800;2022-12-18T01:50:36;17.67;;;11.37;;
50880;SDS011;36858;47.832;-3.800;2022-12-18T01:53:10;16.83;;;11.47;;
50880;SDS011;36858;47.832;-3.800;2022-12-18T01:55:43;18.43;;;11.23;;
50880;SDS011;36858;47.832;-3.800;2022-12-18T01:58:12;19.33;;;12.17;;
50880;SDS011;36858;47.832;-3.800;2022-12-18T02:00:39;18.90;;;11.77;;
50880;SDS011;36858;47.832;-3.800;2022-12-18T02:03:06;16.30;;;11.47;;
50880;SDS011;36858;47.832;-3.800;2022-12-18T02:18:41;18.13;;;11.43;;
50880;SDS011;36858;47.832;-3.800;2022-12-18T02:26:37;20.00;;;11.57;;
50880;SDS011;36858;47.832;-3.800;2022-12-18T02:29:08;18.17;;;11.50;;
50880;SDS011;36858;47.832;-3.800;2022-12-18T02:32:00;21.10;;;12.80;;
50880;SDS011;36858;47.832;-3.800;2022-12-18T02:34:26;16.50;;;12.43;;
50880;SDS011;36858;47.832;-3.800;2022-12-18T02:36:55;19.90;;;11.30;;
50880;SDS011;36858;47.832;-3.800;2022-12-18T02:39:25;18.00;;;11.90;;
50880;SDS011;36858;47.832;-3.800;2022-12-18T02:41:53;18.87;;;12.53;;
50880;SDS011;36858;47.832;-3.800;2022-12-18T02:44:20;16.87;;;12.00;;
50880;SDS011;36858;47.832;-3.800;2022-12-18T02:46:50;17.43;;;11.93;;
50880;SDS011;36858;47.832;-3.800;2022-12-18T02:52:02;17.40;;;11.50;;
50880;SDS011;36858;47.832;-3.800;2022-12-18T02:57:11;18.87;;;11.97;;
50880;SDS011;36858;47.832;-3.800;2022-12-18T02:59:55;18.73;;;11.83;;
50880;SDS011;36858;47.832;-3.800;2022-12-18T03:05:29;14.03;;;9.63;;
50880;SDS011;36858;47.832;-3.800;2022-12-18T03:08:10;19.47;;;11.83;;
50880;SDS011;36858;47.832;-3.800;2022-12-18T03:10:42;17.40;;;11.20;;
50880;SDS011;36858;47.832;-3.800;2022-12-18T03:13:20;16.73;;;11.87;;
50880;SDS011;36858;47.832;-3.800;2022-12-18T03:15:51;18.37;;;11.83;;
50880;SDS011;36858;47.832;-3.800;2022-12-18T03:18:21;16.97;;;10.90;;
50880;SDS011;36858;47.832;-3.800;2022-12-18T03:20:50;16.83;;;10.93;;
50880;SDS011;36858;47.832;-3.800;2022-12-18T03:23:19;20.00;;;12.40;;
50880;SDS011;36858;47.832;-3.800;2022-12-18T03:25:52;16.43;;;10.97;;
50880;SDS011;36858;47.832;-3.800;2022-12-18T03:28:23;16.17;;;11.20;;
50880;SDS011;36858;47.832;-3.800;2022-12-18T03:30:51;18.13;;;11.23;;
50880;SDS011;36858;47.832;-3.800;2022-12-18T03:33:44;15.97;;;11.07;;
50880;SDS011;36858;47.832;-3.800;2022-12-18T03:36:11;16.37;;;11.43;;
50880;SDS011;36858;47.832;-3.800;2022-12-18T03:38:38;19.53;;;11.03;;
50880;SDS011;36858;47.832;-3.800;2022-12-18T03:41:19;17.53;;;11.10;;
50880;SDS011;36858;47.832;-3.800;2022-12-18T03:52:30;17.57;;;11.40;;
50880;SDS011;36858;47.832;-3.800;2022-12-18T03:55:02;19.67;;;11.73;;
50880;SDS011;36858;47.832;-3.800;2022-12-18T03:57:30;19.37;;;11.47;;
50880;SDS011;36858;47.832;-3.800;2022-12-18T04:00:03;16.70;;;11.53;;
50880;SDS011;36858;47.832;-3.800;2022-12-18T04:02:35;17.23;;;11.37;;
50880;SDS011;36858;47.832;-3.800;2022-12-18T04:05:05;15.13;;;10.60;;
50880;SDS011;36858;47.832;-3.800;2022-12-18T04:07:33;18.57;;;11.70;;
50880;SDS011;36858;47.832;-3.800;2022-12-18T04:10:00;17.10;;;10.83;;
50880;SDS011;36858;47.832;-3.800;2022-12-18T04:12:28;19.17;;;12.00;;
50880;SDS011;36858;47.832;-3.800;2022-12-18T04:14:56;16.33;;;10.67;;
50880;SDS011;36858;47.832;-3.800;2022-12-18T04:17:23;13.97;;;10.30;;
50880;SDS011;36858;47.832;-3.800;2022-12-18T04:19:50;17.20;;;11.50;;
50880;SDS011;36858;47.832;-3.800;2022-12-18T04:22:17;15.50;;;10.93;;
50880;SDS011;36858;47.832;-3.800;2022-12-18T04:24:44;16.17;;;10.30;;
50880;SDS011;36858;47.832;-3.800;2022-12-18T04:27:11;16.30;;;11.43;;
50880;SDS011;36858;47.832;-3.800;2022-12-18T04:29:37;16.20;;;11.03;;
50880;SDS011;36858;47.832;-3.800;2022-12-18T04:32:04;18.73;;;11.67;;
50880;SDS011;36858;47.832;-3.800;2022-12-18T04:34:31;16.83;;;11.40;;
50880;SDS011;36858;47.832;-3.800;2022-12-18T04:36:58;15.50;;;10.77;;
50880;SDS011;36858;47.832;-3.800;2022-12-18T04:39:25;16.13;;;11.17;;
50880;SDS011;36858;47.832;-3.800;2022-12-18T04:41:52;17.23;;;11.07;;
50880;SDS011;36858;47.832;-3.800;2022-12-18T04:44:19;18.67;;;11.73;;
50880;SDS011;36858;47.832;-3.800;2022-12-18T04:46:46;16.07;;;10.80;;
50880;SDS011;36858;47.832;-3.800;2022-12-18T04:49:13;17.60;;;10.93;;
50880;SDS011;36858;47.832;-3.800;2022-12-18T04:51:40;14.73;;;10.47;;
50880;SDS011;36858;47.832;-3.800;2022-12-18T04:54:07;16.40;;;10.43;;
50880;SDS011;36858;47.832;-3.800;2022-12-18T04:56:34;17.00;;;11.10;;
50880;SDS011;36858;47.832;-3.800;2022-12-18T04:59:01;14.90;;;10.60;;
50880;SDS011;36858;47.832;-3.800;2022-12-18T05:01:28;17.83;;;11.53;;
50880;SDS011;36858;47.832;-3.800;2022-12-18T05:04:00;15.63;;;11.07;;
50880;SDS011;36858;47.832;-3.800;2022-12-18T05:06:28;15.63;;;11.87;;
50880;SDS011;36858;47.832;-3.800;2022-12-18T05:08:55;17.30;;;10.63;;
50880;SDS011;36858;47.832;-3.800;2022-12-18T05:11:22;17.77;;;11.83;;
50880;SDS011;36858;47.832;-3.800;2022-12-18T05:13:49;16.80;;;11.10;;
50880;SDS011;36858;47.832;-3.800;2022-12-18T05:16:16;17.87;;;11.50;;
50880;SDS011;36858;47.832;-3.800;2022-12-18T05:18:43;17.20;;;11.50;;
50880;SDS011;36858;47.832;-3.800;2022-12-18T05:21:10;21.10;;;11.27;;
50880;SDS011;36858;47.832;-3.800;2022-12-18T05:23:37;15.27;;;10.90;;
50880;SDS011;36858;47.832;-3.800;2022-12-18T05:26:05;18.87;;;10.73;;
50880;SDS011;36858;47.832;-3.800;2022-12-18T05:28:33;16.37;;;11.13;;
50880;SDS011;36858;47.832;-3.800;2022-12-18T05:31:02;19.23;;;11.07;;
50880;SDS011;36858;47.832;-3.800;2022-12-18T05:33:31;14.50;;;10.17;;
50880;SDS011;36858;47.832;-3.800;2022-12-18T05:35:59;16.53;;;10.23;;
50880;SDS011;36858;47.832;-3.800;2022-12-18T05:38:27;17.83;;;11.20;;
50880;SDS011;36858;47.832;-3.800;2022-12-18T05:40:55;18.03;;;11.73;;
50880;SDS011;36858;47.832;-3.800;2022-12-18T05:43:23;17.50;;;10.90;;
50880;SDS011;36858;47.832;-3.800;2022-12-18T05:45:51;16.20;;;10.47;;
50880;SDS011;36858;47.832;-3.800;2022-12-18T05:48:19;17.73;;;10.20;;
50880;SDS011;36858;47.832;-3.800;2022-12-18T05:50:47;15.83;;;10.43;;
50880;SDS011;36858;47.832;-3.800;2022-12-18T05:53:16;14.37;;;10.40;;
50880;SDS011;36858;47.832;-3.800;2022-12-18T05:55:44;16.83;;;10.30;;
50880;SDS011;36858;47.832;-3.800;2022-12-18T05:58:12;14.67;;;10.07;;
50880;SDS011;36858;47.832;-3.800;2022-12-18T06:00:40;12.60;;;9.27;;
50880;SDS011;36858;47.832;-3.800;2022-12-18T06:03:09;14.70;;;10.57;;
50880;SDS011;36858;47.832;-3.800;2022-12-18T06:05:37;15.70;;;10.43;;
50880;SDS011;36858;47.832;-3.800;2022-12-18T06:08:05;13.17;;;9.63;;
50880;SDS011;36858;47.832;-3.800;2022-12-18T06:10:33;12.53;;;8.90;;
50880;SDS011;36858;47.832;-3.800;2022-12-18T06:13:00;14.23;;;10.20;;
50880;SDS011;36858;47.832;-3.800;2022-12-18T06:15:27;16.47;;;9.70;;
50880;SDS011;36858;47.832;-3.800;2022-12-18T06:17:54;14.93;;;11.03;;
50880;SDS011;36858;47.832;-3.800;2022-12-18T06:20:21;15.17;;;9.23;;
50880;SDS011;36858;47.832;-3.800;2022-12-18T06:22:48;14.40;;;9.40;;
50880;SDS011;36858;47.832;-3.800;2022-12-18T06:25:15;12.50;;;9.30;;
50880;SDS011;36858;47.832;-3.800;2022-12-18T06:27:42;11.60;;;8.87;;
50880;SDS011;36858;47.832;-3.800;2022-12-18T06:30:09;13.63;;;8.00;;
50880;SDS011;36858;47.832;-3.800;2022-12-18T06:32:37;12.90;;;9.27;;
50880;SDS011;36858;47.832;-3.800;2022-12-18T06:35:04;14.53;;;9.20;;
50880;SDS011;36858;47.832;-3.800;2022-12-18T06:37:32;11.50;;;8.57;;
50880;SDS011;36858;47.832;-3.800;2022-12-18T06:39:59;11.43;;;8.50;;
50880;SDS011;36858;47.832;-3.800;2022-12-18T06:42:28;10.73;;;8.33;;
50880;SDS011;36858;47.832;-3.800;2022-12-18T06:44:55;12.70;;;8.37;;
50880;SDS011;36858;47.832;-3.800;2022-12-18T06:47:22;12.43;;;8.97;;
50880;SDS011;36858;47.832;-3.800;2022-12-18T06:49:49;13.70;;;9.17;;
50880;SDS011;36858;47.832;-3.800;2022-12-18T06:52:15;12.23;;;8.00;;
50880;SDS011;36858;47.832;-3.800;2022-12-18T06:54:42;13.00;;;8.40;;
50880;SDS011;36858;47.832;-3.800;2022-12-18T06:57:09;12.40;;;7.80;;
50880;SDS011;36858;47.832;-3.800;2022-12-18T06:59:36;10.27;;;8.23;;
50880;SDS011;36858;47.832;-3.800;2022-12-18T07:02:03;10.83;;;7.87;;
50880;SDS011;36858;47.832;-3.800;2022-12-18T07:04:31;14.20;;;8.37;;
50880;SDS011;36858;47.832;-3.800;2022-12-18T07:06:58;13.57;;;8.67;;
50880;SDS011;36858;47.832;-3.800;2022-12-18T07:09:25;12.53;;;8.40;;
50880;SDS011;36858;47.832;-3.800;2022-12-18T07:11:53;10.53;;;8.03;;
50880;SDS011;36858;47.832;-3.800;2022-12-18T07:14:21;10.07;;;7.67;;
50880;SDS011;36858;47.832;-3.800;2022-12-18T07:16:48;12.83;;;7.77;;
50880;SDS011;36858;47.832;-3.800;2022-12-18T07:19:15;11.97;;;7.40;;
50880;SDS011;36858;47.832;-3.800;2022-12-18T07:21:42;11.13;;;7.70;;
50880;SDS011;36858;47.832;-3.800;2022-12-18T07:24:09;13.93;;;7.60;;
50880;SDS011;36858;47.832;-3.800;2022-12-18T07:26:36;14.50;;;7.90;;
50880;SDS011;36858;47.832;-3.800;2022-12-18T07:29:03;12.40;;;7.87;;
50880;SDS011;36858;47.832;-3.800;2022-12-18T07:31:30;12.83;;;7.87;;
50880;SDS011;36858;47.832;-3.800;2022-12-18T07:33:57;13.73;;;6.77;;
50880;SDS011;36858;47.832;-3.800;2022-12-18T07:36:24;10.00;;;6.27;;
50880;SDS011;36858;47.832;-3.800;2022-12-18T07:38:51;12.53;;;5.43;;
50880;SDS011;36858;47.832;-3.800;2022-12-18T07:41:19;11.03;;;4.43;;
50880;SDS011;36858;47.832;-3.800;2022-12-18T07:43:46;9.97;;;3.37;;
50880;SDS011;36858;47.832;-3.800;2022-12-18T07:46:13;10.97;;;4.03;;
50880;SDS011;36858;47.832;-3.800;2022-12-18T07:48:41;9.53;;;3.13;;
50880;SDS011;36858;47.832;-3.800;2022-12-18T07:51:15;12.17;;;3.03;;
50880;SDS011;36858;47.832;-3.800;2022-12-18T07:53:43;6.10;;;2.90;;
50880;SDS011;36858;47.832;-3.800;2022-12-18T07:56:11;6.13;;;2.80;;
50880;SDS011;36858;47.832;-3.800;2022-12-18T07:58:56;6.83;;;2.33;;
50880;SDS011;36858;47.832;-3.800;2022-12-18T08:01:23;6.30;;;2.83;;
50880;SDS011;36858;47.832;-3.800;2022-12-18T08:03:51;9.07;;;2.87;;
50880;SDS011;36858;47.832;-3.800;2022-12-18T08:06:18;6.47;;;2.60;;
50880;SDS011;36858;47.832;-3.800;2022-12-18T08:08:50;5.57;;;2.73;;
50880;SDS011;36858;47.832;-3.800;2022-12-18T08:11:21;8.13;;;3.40;;
50880;SDS011;36858;47.832;-3.800;2022-12-18T08:13:48;5.80;;;4.13;;
50880;SDS011;36858;47.832;-3.800;2022-12-18T08:16:15;8.80;;;3.57;;
50880;SDS011;36858;47.832;-3.800;2022-12-18T08:18:42;7.80;;;3.37;;
50880;SDS011;36858;47.832;-3.800;2022-12-18T08:21:30;9.27;;;3.50;;
50880;SDS011;36858;47.832;-3.800;2022-12-18T08:23:58;13.43;;;3.93;;
50880;SDS011;36858;47.832;-3.800;2022-12-18T08:26:27;9.37;;;2.40;;
50880;SDS011;36858;47.832;-3.800;2022-12-18T08:28:55;14.13;;;3.20;;
50880;SDS011;36858;47.832;-3.800;2022-12-18T08:31:23;11.13;;;2.93;;
50880;SDS011;36858;47.832;-3.800;2022-12-18T08:33:52;8.77;;;3.43;;
50880;SDS011;36858;47.832;-3.800;2022-12-18T08:36:20;11.50;;;3.13;;
50880;SDS011;36858;47.832;-3.800;2022-12-18T08:38:48;11.70;;;3.23;;
50880;SDS011;36858;47.832;-3.800;2022-12-18T08:41:16;6.17;;;2.60;;
50880;SDS011;36858;47.832;-3.800;2022-12-18T08:43:43;6.13;;;3.00;;
50880;SDS011;36858;47.832;-3.800;2022-12-18T08:46:32;5.60;;;2.93;;
50880;SDS011;36858;47.832;-3.800;2022-12-18T08:49:05;9.50;;;2.70;;
50880;SDS011;36858;47.832;-3.800;2022-12-18T08:51:32;8.83;;;3.50;;
50880;SDS011;36858;47.832;-3.800;2022-12-18T08:54:00;12.23;;;3.80;;
50880;SDS011;36858;47.832;-3.800;2022-12-18T08:56:27;9.50;;;3.33;;
50880;SDS011;36858;47.832;-3.800;2022-12-18T08:58:56;6.57;;;3.07;;
50880;SDS011;36858;47.832;-3.800;2022-12-18T09:01:23;10.03;;;3.33;;
50880;SDS011;36858;47.832;-3.800;2022-12-18T09:03:51;16.77;;;4.90;;
50880;SDS011;36858;47.832;-3.800;2022-12-18T09:06:18;15.73;;;4.13;;
50880;SDS011;36858;47.832;-3.800;2022-12-18T09:08:46;23.70;;;5.83;;
50880;SDS011;36858;47.832;-3.800;2022-12-18T09:11:14;19.80;;;4.97;;
50880;SDS011;36858;47.832;-3.800;2022-12-18T09:13:45;16.97;;;3.60;;
50880;SDS011;36858;47.832;-3.800;2022-12-18T09:16:12;12.10;;;3.50;;
50880;SDS011;36858;47.832;-3.800;2022-12-18T09:18:39;7.33;;;2.70;;
50880;SDS011;36858;47.832;-3.800;2022-12-18T09:21:11;12.63;;;3.07;;
50880;SDS011;36858;47.832;-3.800;2022-12-18T09:23:39;13.60;;;4.53;;
50880;SDS011;36858;47.832;-3.800;2022-12-18T09:26:06;11.20;;;3.30;;
50880;SDS011;36858;47.832;-3.800;2022-12-18T09:28:33;8.27;;;2.90;;
50880;SDS011;36858;47.832;-3.800;2022-12-18T09:31:03;7.03;;;2.47;;
50880;SDS011;36858;47.832;-3.800;2022-12-18T09:33:32;10.93;;;3.37;;
50880;SDS011;36858;47.832;-3.800;2022-12-18T09:36:00;9.00;;;3.50;;
50880;SDS011;36858;47.832;-3.800;2022-12-18T09:38:29;8.73;;;3.00;;
50880;SDS011;36858;47.832;-3.800;2022-12-18T09:41:03;20.60;;;4.63;;
50880;SDS011;36858;47.832;-3.800;2022-12-18T09:43:36;8.50;;;3.00;;
50880;SDS011;36858;47.832;-3.800;2022-12-18T09:46:09;8.83;;;3.30;;
50880;SDS011;36858;47.832;-3.800;2022-12-18T09:48:40;8.83;;;2.80;;
50880;SDS011;36858;47.832;-3.800;2022-12-18T09:51:17;17.03;;;3.73;;
50880;SDS011;36858;47.832;-3.800;2022-12-18T09:53:50;6.67;;;2.93;;
50880;SDS011;36858;47.832;-3.800;2022-12-18T09:56:20;15.67;;;3.53;;
50880;SDS011;36858;47.832;-3.800;2022-12-18T09:58:52;12.27;;;3.00;;
50880;SDS011;36858;47.832;-3.800;2022-12-18T10:01:24;13.47;;;3.37;;
50880;SDS011;36858;47.832;-3.800;2022-12-18T10:04:00;9.87;;;3.13;;
50880;SDS011;36858;47.832;-3.800;2022-12-18T10:06:32;11.63;;;3.47;;
50880;SDS011;36858;47.832;-3.800;2022-12-18T10:09:09;10.00;;;3.27;;
50880;SDS011;36858;47.832;-3.800;2022-12-18T10:12:02;15.73;;;4.03;;
50880;SDS011;36858;47.832;-3.800;2022-12-18T10:17:43;8.40;;;2.83;;
50880;SDS011;36858;47.832;-3.800;2022-12-18T10:20:37;9.50;;;3.10;;
50880;SDS011;36858;47.832;-3.800;2022-12-18T10:23:08;12.10;;;4.00;;
50880;SDS011;36858;47.832;-3.800;2022-12-18T10:28:15;8.23;;;2.70;;
50880;SDS011;36858;47.832;-3.800;2022-12-18T10:30:43;11.73;;;3.47;;
50880;SDS011;36858;47.832;-3.800;2022-12-18T10:33:12;10.73;;;3.53;;
50880;SDS011;36858;47.832;-3.800;2022-12-18T10:35:41;12.37;;;3.23;;
50880;SDS011;36858;47.832;-3.800;2022-12-18T10:40:52;10.00;;;3.27;;
50880;SDS011;36858;47.832;-3.800;2022-12-18T10:43:27;10.07;;;2.93;;
50880;SDS011;36858;47.832;-3.800;2022-12-18T10:48:33;10.37;;;3.30;;
50880;SDS011;36858;47.832;-3.800;2022-12-18T10:51:25;12.63;;;3.23;;
50880;SDS011;36858;47.832;-3.800;2022-12-18T10:53:57;10.90;;;3.30;;
50880;SDS011;36858;47.832;-3.800;2022-12-18T10:56:27;9.83;;;2.93;;
50880;SDS011;36858;47.832;-3.800;2022-12-18T10:58:58;9.77;;;2.97;;
50880;SDS011;36858;47.832;-3.800;2022-12-18T11:01:26;11.97;;;3.10;;
50880;SDS011;36858;47.832;-3.800;2022-12-18T11:06:27;9.70;;;3.47;;
50880;SDS011;36858;47.832;-3.800;2022-12-18T11:09:00;12.43;;;3.00;;
50880;SDS011;36858;47.832;-3.800;2022-12-18T11:11:37;7.47;;;2.37;;
50880;SDS011;36858;47.832;-3.800;2022-12-18T11:14:05;14.30;;;3.40;;
50880;SDS011;36858;47.832;-3.800;2022-12-18T11:16:42;10.60;;;3.00;;
50880;SDS011;36858;47.832;-3.800;2022-12-18T11:19:35;9.10;;;2.87;;
50880;SDS011;36858;47.832;-3.800;2022-12-18T11:22:17;14.90;;;3.37;;
50880;SDS011;36858;47.832;-3.800;2022-12-18T11:27:41;17.13;;;3.57;;
50880;SDS011;36858;47.832;-3.800;2022-12-18T11:32:53;11.50;;;3.67;;
50880;SDS011;36858;47.832;-3.800;2022-12-18T11:35:37;15.63;;;3.27;;
50880;SDS011;36858;47.832;-3.800;2022-12-18T11:38:28;10.17;;;2.97;;
50880;SDS011;36858;47.832;-3.800;2022-12-18T11:41:05;6.60;;;2.83;;
50880;SDS011;36858;47.832;-3.800;2022-12-18T11:43:42;9.90;;;2.77;;
50880;SDS011;36858;47.832;-3.800;2022-12-18T11:46:17;9.50;;;2.77;;
50880;SDS011;36858;47.832;-3.800;2022-12-18T11:48:52;11.73;;;2.93;;
50880;SDS011;36858;47.832;-3.800;2022-12-18T11:51:26;11.43;;;2.50;;
50880;SDS011;36858;47.832;-3.800;2022-12-18T11:53:59;15.03;;;2.83;;
50880;SDS011;36858;47.832;-3.800;2022-12-18T11:56:35;12.70;;;3.03;;
50880;SDS011;36858;47.832;-3.800;2022-12-18T12:01:52;12.33;;;4.13;;
50880;SDS011;36858;47.832;-3.800;2022-12-18T12:04:34;11.47;;;3.80;;
50880;SDS011;36858;47.832;-3.800;2022-12-18T12:07:21;6.67;;;2.43;;
50880;SDS011;36858;47.832;-3.800;2022-12-18T12:26:06;10.60;;;3.27;;
50880;SDS011;36858;47.832;-3.800;2022-12-18T12:39:20;7.77;;;3.23;;
50880;SDS011;36858;47.832;-3.800;2022-12-18T12:41:58;15.57;;;3.37;;
50880;SDS011;36858;47.832;-3.800;2022-12-18T12:44:45;12.10;;;2.70;;
50880;SDS011;36858;47.832;-3.800;2022-12-18T12:47:23;14.07;;;3.73;;
50880;SDS011;36858;47.832;-3.800;2022-12-18T12:49:56;15.77;;;4.20;;
50880;SDS011;36858;47.832;-3.800;2022-12-18T12:52:38;9.63;;;3.87;;
50880;SDS011;36858;47.832;-3.800;2022-12-18T12:55:12;18.90;;;3.40;;
50880;SDS011;36858;47.832;-3.800;2022-12-18T12:57:43;12.67;;;3.47;;
50880;SDS011;36858;47.832;-3.800;2022-12-18T13:00:15;13.67;;;2.97;;
50880;SDS011;36858;47.832;-3.800;2022-12-18T13:02:51;14.60;;;3.30;;
50880;SDS011;36858;47.832;-3.800;2022-12-18T13:05:56;11.40;;;2.80;;
50880;SDS011;36858;47.832;-3.800;2022-12-18T13:08:31;12.67;;;3.07;;
50880;SDS011;36858;47.832;-3.800;2022-12-18T13:11:30;20.30;;;4.80;;
50880;SDS011;36858;47.832;-3.800;2022-12-18T13:14:27;12.80;;;2.90;;
50880;SDS011;36858;47.832;-3.800;2022-12-18T13:25:03;11.77;;;3.40;;
50880;SDS011;36858;47.832;-3.800;2022-12-18T13:28:15;14.20;;;3.20;;
50880;SDS011;36858;47.832;-3.800;2022-12-18T13:30:46;5.97;;;2.80;;
50880;SDS011;36858;47.832;-3.800;2022-12-18T13:36:08;13.77;;;2.73;;
50880;SDS011;36858;47.832;-3.800;2022-12-18T13:38:39;14.13;;;3.80;;
50880;SDS011;36858;47.832;-3.800;2022-12-18T13:43:40;12.93;;;3.37;;
50880;SDS011;36858;47.832;-3.800;2022-12-18T13:49:05;18.50;;;3.77;;
50880;SDS011;36858;47.832;-3.800;2022-12-18T13:51:44;17.97;;;3.27;;
50880;SDS011;36858;47.832;-3.800;2022-12-18T13:54:18;18.17;;;3.87;;
50880;SDS011;36858;47.832;-3.800;2022-12-18T13:56:55;16.50;;;3.43;;
50880;SDS011;36858;47.832;-3.800;2022-12-18T14:01:52;16.27;;;4.57;;
50880;SDS011;36858;47.832;-3.800;2022-12-18T14:04:27;12.20;;;3.30;;
50880;SDS011;36858;47.832;-3.800;2022-12-18T14:07:07;13.47;;;2.83;;
50880;SDS011;36858;47.832;-3.800;2022-12-18T14:09:44;9.57;;;3.00;;
50880;SDS011;36858;47.832;-3.800;2022-12-18T14:12:17;12.77;;;3.70;;
50880;SDS011;36858;47.832;-3.800;2022-12-18T14:15:06;16.57;;;3.87;;
50880;SDS011;36858;47.832;-3.800;2022-12-18T14:17:47;11.77;;;3.20;;
50880;SDS011;36858;47.832;-3.800;2022-12-18T14:20:14;9.17;;;3.83;;
50880;SDS011;36858;47.832;-3.800;2022-12-18T14:22:45;11.23;;;3.37;;
50880;SDS011;36858;47.832;-3.800;2022-12-18T14:25:14;14.73;;;3.40;;
50880;SDS011;36858;47.832;-3.800;2022-12-18T14:27:44;19.57;;;3.80;;
50880;SDS011;36858;47.832;-3.800;2022-12-18T14:30:30;11.53;;;3.10;;
50880;SDS011;36858;47.832;-3.800;2022-12-18T14:35:28;11.13;;;3.43;;
50880;SDS011;36858;47.832;-3.800;2022-12-18T14:38:41;11.30;;;3.00;;
50880;SDS011;36858;47.832;-3.800;2022-12-18T14:40:42;12.70;;;3.63;;
50880;SDS011;36858;47.832;-3.800;2022-12-18T14:43:10;10.57;;;2.90;;
50880;SDS011;36858;47.832;-3.800;2022-12-18T14:45:42;12.63;;;3.63;;
50880;SDS011;36858;47.832;-3.800;2022-12-18T14:51:22;14.60;;;3.40;;
50880;SDS011;36858;47.832;-3.800;2022-12-18T14:53:54;9.30;;;2.83;;
50880;SDS011;36858;47.832;-3.800;2022-12-18T14:56:23;7.67;;;2.70;;
50880;SDS011;36858;47.832;-3.800;2022-12-18T14:58:58;11.13;;;2.70;;
50880;SDS011;36858;47.832;-3.800;2022-12-18T15:01:28;8.00;;;2.50;;
50880;SDS011;36858;47.832;-3.800;2022-12-18T15:03:56;7.87;;;2.70;;
50880;SDS011;36858;47.832;-3.800;2022-12-18T15:06:25;14.13;;;3.30;;
50880;SDS011;36858;47.832;-3.800;2022-12-18T15:08:52;11.57;;;3.27;;
50880;SDS011;36858;47.832;-3.800;2022-12-18T15:11:55;15.30;;;3.00;;
50880;SDS011;36858;47.832;-3.800;2022-12-18T15:14:23;9.37;;;2.40;;
50880;SDS011;36858;47.832;-3.800;2022-12-18T15:16:58;12.63;;;3.03;;
50880;SDS011;36858;47.832;-3.800;2022-12-18T15:19:38;11.67;;;3.23;;
50880;SDS011;36858;47.832;-3.800;2022-12-18T15:24:51;10.87;;;2.60;;
50880;SDS011;36858;47.832;-3.800;2022-12-18T15:32:31;9.57;;;3.10;;
50880;SDS011;36858;47.832;-3.800;2022-12-18T15:37:39;15.07;;;2.60;;
50880;SDS011;36858;47.832;-3.800;2022-12-18T15:40:08;11.43;;;2.57;;
50880;SDS011;36858;47.832;-3.800;2022-12-18T15:42:43;11.10;;;3.03;;
50880;SDS011;36858;47.832;-3.800;2022-12-18T15:45:28;12.37;;;2.60;;
50880;SDS011;36858;47.832;-3.800;2022-12-18T15:47:56;10.37;;;2.57;;
50880;SDS011;36858;47.832;-3.800;2022-12-18T15:50:23;13.30;;;2.87;;
50880;SDS011;36858;47.832;-3.800;2022-12-18T15:52:51;11.23;;;3.23;;
50880;SDS011;36858;47.832;-3.800;2022-12-18T15:55:20;9.47;;;2.47;;
50880;SDS011;36858;47.832;-3.800;2022-12-18T15:58:07;9.67;;;2.80;;
50880;SDS011;36858;47.832;-3.800;2022-12-18T16:00:35;9.47;;;3.00;;
50880;SDS011;36858;47.832;-3.800;2022-12-18T16:03:04;15.40;;;2.93;;
50880;SDS011;36858;47.832;-3.800;2022-12-18T16:05:31;10.83;;;2.90;;
50880;SDS011;36858;47.832;-3.800;2022-12-18T16:07:58;11.27;;;2.77;;
50880;SDS011;36858;47.832;-3.800;2022-12-18T16:10:25;10.83;;;2.90;;
50880;SDS011;36858;47.832;-3.800;2022-12-18T16:12:53;16.80;;;2.70;;
50880;SDS011;36858;47.832;-3.800;2022-12-18T16:15:20;11.07;;;3.33;;
50880;SDS011;36858;47.832;-3.800;2022-12-18T16:17:50;10.00;;;2.93;;
50880;SDS011;36858;47.832;-3.800;2022-12-18T16:20:19;11.43;;;3.23;;
50880;SDS011;36858;47.832;-3.800;2022-12-18T16:22:47;16.00;;;3.03;;
50880;SDS011;36858;47.832;-3.800;2022-12-18T16:25:19;15.83;;;4.43;;
50880;SDS011;36858;47.832;-3.800;2022-12-18T16:27:48;20.53;;;5.17;;
50880;SDS011;36858;47.832;-3.800;2022-12-18T16:30:18;20.17;;;4.03;;
50880;SDS011;36858;47.832;-3.800;2022-12-18T16:32:46;20.13;;;3.57;;
50880;SDS011;36858;47.832;-3.800;2022-12-18T16:35:14;32.50;;;5.17;;
50880;SDS011;36858;47.832;-3.800;2022-12-18T16:37:41;20.70;;;3.73;;
50880;SDS011;36858;47.832;-3.800;2022-12-18T16:40:10;17.20;;;3.03;;
50880;SDS011;36858;47.832;-3.800;2022-12-18T16:42:39;16.50;;;3.30;;